createdAt,value
2018-01-17T00:00:56.491Z,-0.10
2018-01-17T00:03:24.797Z,-0.10
2018-01-17T00:05:53.128Z,-0.10
2018-01-17T00:08:21.437Z,-0.20
2018-01-17T00:10:49.740Z,-0.20
2018-01-17T00:13:18.143Z,-0.30
2018-01-17T00:15:46.454Z,-0.30
2018-01-17T00:18:14.782Z,-0.40
2018-01-17T00:20:43.138Z,-0.30
2018-01-17T00:23:11.430Z,-0.30
2018-01-17T00:25:39.749Z,-0.30
2018-01-17T00:28:08.054Z,-0.30
2018-01-17T00:30:36.386Z,-0.30
2018-01-17T00:33:04.702Z,-0.30
2018-01-17T00:35:33.774Z,-0.20
2018-01-17T00:38:02.064Z,-0.20
2018-01-17T00:40:30.388Z,-0.20
2018-01-17T00:42:59.529Z,-0.20
2018-01-17T00:45:27.939Z,-0.30
2018-01-17T00:47:56.297Z,-0.30
2018-01-17T00:50:25.439Z,-0.30
2018-01-17T00:52:54.076Z,-0.30
2018-01-17T00:55:22.478Z,-0.30
2018-01-17T00:57:50.924Z,-0.30
2018-01-17T01:00:19.312Z,-0.30
2018-01-17T01:02:47.688Z,-0.30
2018-01-17T01:05:16.074Z,-0.30
2018-01-17T01:07:44.517Z,-0.30
2018-01-17T01:10:12.836Z,-0.30
2018-01-17T01:12:41.915Z,-0.20
2018-01-17T01:15:10.244Z,-0.20
2018-01-17T01:17:39.351Z,-0.20
2018-01-17T01:20:08.412Z,-0.20
2018-01-17T01:22:36.716Z,-0.20
2018-01-17T01:25:05.002Z,-0.20
2018-01-17T01:27:33.288Z,-0.20
2018-01-17T01:30:01.699Z,-0.20
2018-01-17T01:32:30.010Z,-0.30
2018-01-17T01:34:59.066Z,-0.30
2018-01-17T01:37:27.381Z,-0.30
2018-01-17T01:39:55.674Z,-0.40
2018-01-17T01:42:24.002Z,-0.40
2018-01-17T01:44:52.299Z,-0.40
2018-01-17T01:47:20.618Z,-0.40
2018-01-17T01:49:48.908Z,-0.50
2018-01-17T01:52:17.208Z,-0.50
2018-01-17T01:54:45.542Z,-0.40
2018-01-17T01:57:14.609Z,-0.40
2018-01-17T01:59:43.033Z,-0.40
2018-01-17T02:02:12.098Z,-0.40
2018-01-17T02:04:40.402Z,-0.40
2018-01-17T02:07:08.720Z,-0.30
2018-01-17T02:09:36.993Z,-0.30
2018-01-17T02:12:05.324Z,-0.30
2018-01-17T02:14:33.624Z,-0.30
2018-01-17T02:17:01.935Z,-0.30
2018-01-17T02:19:30.223Z,-0.30
2018-01-17T02:21:58.518Z,-0.30
2018-01-17T02:24:26.835Z,-0.30
2018-01-17T02:26:55.126Z,-0.30
2018-01-17T02:29:23.432Z,-0.30
2018-01-17T02:31:51.731Z,-0.30
2018-01-17T02:34:20.811Z,-0.30
2018-01-17T02:36:49.108Z,-0.30
2018-01-17T02:39:17.451Z,-0.20
2018-01-17T02:41:45.755Z,-0.30
2018-01-17T02:44:14.035Z,-0.20
2018-01-17T02:46:42.358Z,-0.20
2018-01-17T02:49:10.654Z,-0.20
2018-01-17T02:51:39.626Z,-0.20
2018-01-17T02:54:07.923Z,-0.20
2018-01-17T02:56:36.242Z,-0.20
2018-01-17T02:59:04.574Z,-0.20
2018-01-17T03:01:32.876Z,-0.20
2018-01-17T03:04:01.160Z,-0.20
2018-01-17T03:06:29.494Z,-0.20
2018-01-17T03:08:57.776Z,-0.20
2018-01-17T03:11:26.084Z,-0.30
2018-01-17T03:13:54.374Z,-0.30
2018-01-17T03:16:22.662Z,-0.30
2018-01-17T03:18:50.963Z,-0.30
2018-01-17T03:21:20.019Z,-0.30
2018-01-17T03:23:48.361Z,-0.30
2018-01-17T03:26:16.638Z,-0.30
2018-01-17T03:28:45.065Z,-0.40
2018-01-17T03:31:13.384Z,-0.50
2018-01-17T03:33:41.690Z,-0.60
2018-01-17T03:36:10.007Z,-0.70
2018-01-17T03:38:39.134Z,-0.90
2018-01-17T03:41:08.236Z,-1.00
2018-01-17T03:43:37.302Z,-1.00
2018-01-17T03:46:05.602Z,-1.10
2018-01-17T03:48:33.888Z,-1.10
2018-01-17T03:51:02.175Z,-1.20
2018-01-17T03:53:30.490Z,-1.20
2018-01-17T03:55:58.782Z,-1.20
2018-01-17T03:58:27.067Z,-1.20
2018-01-17T04:00:55.409Z,-1.30
2018-01-17T04:03:23.707Z,-1.40
2018-01-17T04:05:51.998Z,-1.40
2018-01-17T04:08:20.305Z,-1.40
2018-01-17T04:10:48.594Z,-1.30
2018-01-17T04:13:17.071Z,-1.40
2018-01-17T04:15:45.365Z,-1.40
2018-01-17T04:18:13.688Z,-1.30
2018-01-17T04:20:41.997Z,-1.30
2018-01-17T04:23:10.314Z,-1.30
2018-01-17T04:25:38.881Z,-1.30
2018-01-17T04:28:07.179Z,-1.20
2018-01-17T04:30:36.251Z,-1.20
2018-01-17T04:33:04.554Z,-1.20
2018-01-17T04:35:32.912Z,-1.20
2018-01-17T04:38:01.248Z,-1.20
2018-01-17T04:40:29.534Z,-1.10
2018-01-17T04:42:57.823Z,-1.10
2018-01-17T04:45:26.158Z,-1.10
2018-01-17T04:47:54.458Z,-1.10
2018-01-17T04:50:22.751Z,-1.00
2018-01-17T04:52:51.038Z,-1.00
2018-01-17T04:55:19.330Z,-1.00
2018-01-17T04:57:47.659Z,-1.00
2018-01-17T05:00:15.975Z,-1.00
2018-01-17T05:02:45.051Z,-1.00
2018-01-17T05:05:13.939Z,-1.00
2018-01-17T05:07:42.284Z,-1.00
2018-01-17T05:10:10.594Z,-1.00
2018-01-17T05:12:38.894Z,-1.00
2018-01-17T05:15:07.197Z,-1.00
2018-01-17T05:17:35.498Z,-1.00
2018-01-17T05:20:03.801Z,-0.90
2018-01-17T05:22:32.095Z,-1.00
2018-01-17T05:25:00.417Z,-1.00
2018-01-17T05:27:28.813Z,-1.00
2018-01-17T05:29:57.115Z,-1.00
2018-01-17T05:32:25.426Z,-1.00
2018-01-17T05:34:53.724Z,-1.00
2018-01-17T05:37:22.078Z,-0.90
2018-01-17T05:39:50.402Z,-0.90
2018-01-17T05:42:18.692Z,-0.90
2018-01-17T05:44:47.013Z,-0.90
2018-01-17T05:47:15.302Z,-0.90
2018-01-17T05:49:43.604Z,-0.90
2018-01-17T05:52:12.725Z,-1.00
2018-01-17T05:54:41.831Z,-1.10
2018-01-17T05:57:10.930Z,-1.10
2018-01-17T05:59:40.899Z,-1.10
2018-01-17T06:02:09.182Z,-1.10
2018-01-17T06:04:37.534Z,-1.10
2018-01-17T06:07:05.826Z,-1.10
2018-01-17T06:09:35.011Z,-1.10
2018-01-17T06:12:03.303Z,-1.10
2018-01-17T06:14:31.602Z,-1.10
2018-01-17T06:16:59.909Z,-1.10
2018-01-17T06:19:28.966Z,-1.20
2018-01-17T06:21:57.274Z,-1.20
2018-01-17T06:24:25.579Z,-1.20
2018-01-17T06:26:53.918Z,-1.30
2018-01-17T06:29:22.207Z,-1.40
2018-01-17T06:31:50.496Z,-1.40
2018-01-17T06:34:18.787Z,-1.50
2018-01-17T06:36:47.085Z,-1.50
2018-01-17T06:39:15.528Z,-1.40
2018-01-17T06:41:43.939Z,-1.40
2018-01-17T06:44:12.992Z,-1.40
2018-01-17T06:46:41.306Z,-1.40
2018-01-17T06:49:09.602Z,-1.40
2018-01-17T06:51:37.886Z,-1.40
2018-01-17T06:54:06.190Z,-1.40
2018-01-17T06:56:34.522Z,-1.40
2018-01-17T06:59:02.861Z,-1.40
2018-01-17T07:01:31.150Z,-1.40
2018-01-17T07:03:59.443Z,-1.40
2018-01-17T07:06:27.802Z,-1.40
2018-01-17T07:08:56.090Z,-1.40
2018-01-17T07:11:24.379Z,-1.40
2018-01-17T07:13:52.724Z,-1.30
2018-01-17T07:16:21.796Z,-1.30
2018-01-17T07:18:50.081Z,-1.30
2018-01-17T07:21:18.387Z,-1.30
2018-01-17T07:23:46.695Z,-1.30
2018-01-17T07:26:15.033Z,-1.40
2018-01-17T07:28:43.363Z,-1.40
2018-01-17T07:31:11.652Z,-1.40
2018-01-17T07:33:40.042Z,-1.40
2018-01-17T07:36:08.347Z,-1.40
2018-01-17T07:38:36.683Z,-1.40
2018-01-17T07:41:05.016Z,-1.40
2018-01-17T07:43:33.299Z,-1.40
2018-01-17T07:46:01.595Z,-1.40
2018-01-17T07:48:29.898Z,-1.40
2018-01-17T07:50:58.197Z,-1.40
2018-01-17T07:53:27.274Z,-1.40
2018-01-17T07:55:55.582Z,-1.40
2018-01-17T07:58:23.958Z,-1.40
2018-01-17T08:00:52.247Z,-1.40
2018-01-17T08:03:20.535Z,-1.40
2018-01-17T08:05:48.866Z,-1.40
2018-01-17T08:08:17.986Z,-1.40
2018-01-17T08:10:46.359Z,-1.40
2018-01-17T08:13:14.699Z,-1.40
2018-01-17T08:15:42.990Z,-1.50
2018-01-17T08:18:11.340Z,-1.40
2018-01-17T08:20:40.409Z,-1.40
2018-01-17T08:23:08.703Z,-1.50
2018-01-17T08:25:36.993Z,-1.40
2018-01-17T08:28:05.312Z,-1.30
2018-01-17T08:30:34.744Z,-1.20
2018-01-17T08:33:04.483Z,-1.20
2018-01-17T08:35:33.864Z,-1.20
2018-01-17T08:38:02.714Z,-1.20
2018-01-17T08:40:32.672Z,-1.10
2018-01-17T08:43:01.004Z,-1.10
2018-01-17T08:45:29.306Z,-1.10
2018-01-17T08:47:57.592Z,-1.10
2018-01-17T08:50:25.901Z,-1.10
2018-01-17T08:52:54.220Z,-1.10
2018-01-17T08:55:22.524Z,-1.00
2018-01-17T08:57:51.609Z,-0.90
2018-01-17T09:00:19.908Z,-0.90
2018-01-17T09:02:48.346Z,-0.80
2018-01-17T09:05:16.648Z,-0.80
2018-01-17T09:07:44.947Z,-0.90
2018-01-17T09:10:13.298Z,-1.00
2018-01-17T09:12:42.650Z,-0.90
2018-01-17T09:15:11.000Z,-0.90
2018-01-17T09:17:39.388Z,-0.90
2018-01-17T09:20:07.733Z,-1.00
2018-01-17T09:22:36.118Z,-1.10
2018-01-17T09:25:04.418Z,-1.20
2018-01-17T09:27:32.734Z,-1.30
2018-01-17T09:30:01.034Z,-1.30
2018-01-17T09:32:29.411Z,-1.30
2018-01-17T09:34:57.721Z,-1.40
2018-01-17T09:37:26.840Z,-1.40
2018-01-17T09:39:55.993Z,-1.50
2018-01-17T09:42:24.303Z,-1.50
2018-01-17T09:44:52.600Z,-1.50
2018-01-17T09:47:21.035Z,-1.40
2018-01-17T09:49:50.084Z,-1.40
2018-01-17T09:52:18.396Z,-1.40
2018-01-17T09:54:46.748Z,-1.40
2018-01-17T09:57:15.106Z,-1.40
2018-01-17T09:59:44.184Z,-1.30
2018-01-17T10:02:12.523Z,-1.30
2018-01-17T10:04:40.847Z,-1.30
2018-01-17T10:07:09.183Z,-1.30
2018-01-17T10:09:37.782Z,-1.30
2018-01-17T10:12:07.284Z,-1.40
2018-01-17T10:14:35.574Z,-1.40
2018-01-17T10:17:03.878Z,-1.40
2018-01-17T10:19:33.065Z,-1.20
2018-01-17T10:22:01.365Z,-1.20
2018-01-17T10:24:29.672Z,-1.10
2018-01-17T10:26:58.811Z,-1.30
2018-01-17T10:29:27.209Z,-1.30
2018-01-17T10:31:55.598Z,-1.20
2018-01-17T10:34:23.966Z,-1.30
2018-01-17T10:36:52.354Z,-1.20
2018-01-17T10:39:20.763Z,-1.20
2018-01-17T10:41:49.165Z,-1.20
2018-01-17T10:44:17.600Z,-1.10
2018-01-17T10:46:45.977Z,-1.10
2018-01-17T10:49:14.374Z,-1.10
2018-01-17T10:51:42.689Z,-1.20
2018-01-17T10:54:11.064Z,-1.20
2018-01-17T10:56:39.373Z,-1.20
2018-01-17T10:59:07.662Z,-1.20
2018-01-17T11:01:35.993Z,-1.20
2018-01-17T11:04:04.327Z,-1.00
2018-01-17T11:06:32.690Z,-1.00
2018-01-17T11:09:01.993Z,-0.90
2018-01-17T11:11:31.598Z,-0.90
2018-01-17T11:13:59.917Z,-0.90
2018-01-17T11:16:28.272Z,-1.00
2018-01-17T11:18:56.579Z,-1.10
2018-01-17T11:21:24.870Z,-1.10
2018-01-17T11:23:54.215Z,-0.90
2018-01-17T11:26:22.519Z,-0.80
2018-01-17T11:28:50.816Z,-0.70
2018-01-17T11:31:19.160Z,-0.60
2018-01-17T11:33:47.508Z,-0.60
2018-01-17T11:36:15.805Z,-0.60
2018-01-17T11:38:44.908Z,-0.80
2018-01-17T11:41:14.240Z,-0.70
2018-01-17T11:43:43.393Z,-0.60
2018-01-17T11:46:11.773Z,-0.60
2018-01-17T11:48:40.155Z,-0.60
2018-01-17T11:51:08.440Z,-0.60
2018-01-17T11:53:36.752Z,-0.70
2018-01-17T11:56:05.091Z,-0.70
2018-01-17T11:58:33.422Z,-0.70
2018-01-17T12:01:01.729Z,-0.80
2018-01-17T12:03:30.041Z,-0.80
2018-01-17T12:05:58.326Z,-0.90
2018-01-17T12:08:26.651Z,-0.80
2018-01-17T12:10:55.736Z,-0.80
2018-01-17T12:13:24.116Z,-0.80
2018-01-17T12:15:52.459Z,-0.70
2018-01-17T12:18:20.763Z,-0.70
2018-01-17T12:20:49.069Z,-0.70
2018-01-17T12:23:17.395Z,-0.60
2018-01-17T12:25:45.723Z,-0.70
2018-01-17T12:28:14.064Z,-0.70
2018-01-17T12:30:42.365Z,-0.70
2018-01-17T12:33:10.653Z,-0.70
2018-01-17T12:35:38.956Z,-0.70
2018-01-17T12:38:07.323Z,-0.70
2018-01-17T12:40:35.661Z,-0.70
2018-01-17T12:43:03.968Z,-0.80
2018-01-17T12:45:32.292Z,-0.80
2018-01-17T12:48:00.585Z,-0.80
2018-01-17T12:50:28.875Z,-0.70
2018-01-17T12:52:57.191Z,-0.80
2018-01-17T12:55:26.323Z,-0.80
2018-01-17T12:57:54.626Z,-0.80
2018-01-17T13:00:22.972Z,-0.80
2018-01-17T13:02:51.239Z,-0.80
2018-01-17T13:05:19.684Z,-0.80
2018-01-17T13:07:48.783Z,-0.90
2018-01-17T13:10:17.925Z,-0.90
2018-01-17T13:12:46.226Z,-0.90
2018-01-17T13:15:14.670Z,-0.80
2018-01-17T13:17:43.758Z,-0.70
2018-01-17T13:20:12.040Z,-0.80
2018-01-17T13:22:40.350Z,-0.70
2018-01-17T13:25:09.464Z,-0.70
2018-01-17T13:27:37.893Z,-0.80
2018-01-17T13:30:06.289Z,-0.60
2018-01-17T13:32:34.674Z,-0.60
2018-01-17T13:35:03.035Z,-0.50
2018-01-17T13:37:32.202Z,-0.50
2018-01-17T13:40:00.581Z,-0.50
2018-01-17T13:42:28.915Z,-0.40
2018-01-17T13:44:57.238Z,-0.50
2018-01-17T13:47:25.534Z,-0.60
2018-01-17T13:49:53.882Z,-0.60
2018-01-17T13:52:22.187Z,-0.60
2018-01-17T13:54:51.253Z,-0.60
2018-01-17T13:57:19.573Z,-0.60
2018-01-17T13:59:47.990Z,-0.60
2018-01-17T14:02:17.065Z,-0.50
2018-01-17T14:04:45.427Z,-0.50
2018-01-17T14:07:13.736Z,-0.50
2018-01-17T14:09:42.201Z,-0.50
2018-01-17T14:12:10.530Z,-0.50
2018-01-17T14:14:38.823Z,-0.50
2018-01-17T14:17:07.115Z,-0.50
2018-01-17T14:19:35.405Z,-0.50
2018-01-17T14:22:03.742Z,-0.40
2018-01-17T14:24:32.173Z,-0.40
2018-01-17T14:27:00.465Z,-0.50
2018-01-17T14:29:28.756Z,-0.40
2018-01-17T14:31:57.065Z,-0.50
2018-01-17T14:34:25.350Z,-0.60
2018-01-17T14:36:53.660Z,-0.60
2018-01-17T14:39:22.745Z,-0.60
2018-01-17T14:41:52.003Z,-0.60
2018-01-17T14:44:20.290Z,-0.70
2018-01-17T14:46:48.594Z,-0.60
2018-01-17T14:49:16.892Z,-0.60
2018-01-17T14:51:45.218Z,-0.60
2018-01-17T14:54:14.335Z,-0.60
2018-01-17T14:56:42.717Z,-0.60
2018-01-17T14:59:11.819Z,-0.60
2018-01-17T15:01:40.131Z,-0.70
2018-01-17T15:04:09.262Z,-0.70
2018-01-17T15:06:38.343Z,-0.80
2018-01-17T15:09:07.432Z,-0.80
2018-01-17T15:11:35.780Z,-0.80
2018-01-17T15:14:04.091Z,-0.80
2018-01-17T15:16:32.408Z,-0.90
2018-01-17T15:19:00.737Z,-0.90
2018-01-17T15:21:29.895Z,-0.90
2018-01-17T15:23:58.282Z,-0.90
2018-01-17T15:26:26.671Z,-0.90
2018-01-17T15:28:55.051Z,-0.80
2018-01-17T15:31:23.430Z,-0.80
2018-01-17T15:33:51.802Z,-0.80
2018-01-17T15:36:20.190Z,-0.90
2018-01-17T15:38:49.266Z,-0.90
2018-01-17T15:41:17.576Z,-0.90
2018-01-17T15:43:45.912Z,-0.90
2018-01-17T15:46:14.204Z,-0.90
2018-01-17T15:48:42.526Z,-0.90
2018-01-17T15:51:10.843Z,-0.90
2018-01-17T15:53:39.911Z,-0.90
2018-01-17T15:56:08.220Z,-0.90
2018-01-17T15:58:36.505Z,-0.90
2018-01-17T16:01:04.851Z,-0.80
2018-01-17T16:03:33.159Z,-0.80
2018-01-17T16:06:01.458Z,-0.80
2018-01-17T16:08:30.739Z,-0.80
2018-01-17T16:10:59.040Z,-0.70
2018-01-17T16:13:27.480Z,-0.80
2018-01-17T16:15:55.757Z,-0.70
2018-01-17T16:18:24.054Z,-0.70
2018-01-17T16:20:52.346Z,-0.80
2018-01-17T16:23:20.687Z,-0.70
2018-01-17T16:25:48.990Z,-0.70
2018-01-17T16:28:17.292Z,-0.70
2018-01-17T16:30:45.647Z,-0.80
2018-01-17T16:33:14.714Z,-0.70
2018-01-17T16:35:43.075Z,-0.70
2018-01-17T16:38:11.374Z,-0.70
2018-01-17T16:40:39.672Z,-0.70
2018-01-17T16:43:07.966Z,-0.70
2018-01-17T16:45:36.265Z,-0.60
2018-01-17T16:48:04.619Z,-0.60
2018-01-17T16:50:32.912Z,-0.60
2018-01-17T16:53:01.232Z,-0.60
2018-01-17T16:55:29.534Z,-0.60
2018-01-17T16:57:57.830Z,-0.60
2018-01-17T17:00:26.162Z,-0.70
2018-01-17T17:02:54.466Z,-0.70
2018-01-17T17:05:23.118Z,-0.70
2018-01-17T17:07:51.449Z,-0.70
2018-01-17T17:10:19.746Z,-0.70
2018-01-17T17:12:48.077Z,-0.70
2018-01-17T17:15:17.172Z,-0.70
2018-01-17T17:17:45.507Z,-0.70
2018-01-17T17:20:14.604Z,-0.60
2018-01-17T17:22:43.804Z,-0.60
2018-01-17T17:25:12.146Z,-0.60
2018-01-17T17:27:40.466Z,-0.70
2018-01-17T17:30:08.769Z,-0.80
2018-01-17T17:32:37.381Z,-0.80
2018-01-17T17:35:06.455Z,-0.80
2018-01-17T17:37:34.752Z,-0.80
2018-01-17T17:40:03.054Z,-0.70
2018-01-17T17:42:31.364Z,-0.60
2018-01-17T17:45:00.457Z,-0.50
2018-01-17T17:47:28.759Z,-0.50
2018-01-17T17:49:57.829Z,-0.40
2018-01-17T17:52:26.130Z,-0.40
2018-01-17T17:54:54.419Z,-0.40
2018-01-17T17:57:22.922Z,-0.40
2018-01-17T17:59:51.340Z,-0.40
2018-01-17T18:02:19.825Z,-0.40
2018-01-17T18:04:48.943Z,-0.50
2018-01-17T18:07:18.893Z,-0.60
2018-01-17T18:09:47.279Z,-0.60
2018-01-17T18:12:15.608Z,-0.70
2018-01-17T18:14:44.019Z,-0.70
2018-01-17T18:17:12.478Z,-0.70
2018-01-17T18:19:40.869Z,-0.70
2018-01-17T18:22:09.249Z,-0.60
2018-01-17T18:24:37.602Z,-0.60
2018-01-17T18:27:05.944Z,-0.60
2018-01-17T18:29:34.266Z,-0.60
2018-01-17T18:32:02.923Z,-0.60
2018-01-17T18:34:31.887Z,-0.60
2018-01-17T18:37:00.955Z,-0.70
2018-01-17T18:39:29.247Z,-0.70
2018-01-17T18:41:57.704Z,-0.70
2018-01-17T18:44:26.747Z,-0.70
2018-01-17T18:46:55.039Z,-0.70
2018-01-17T18:49:23.326Z,-0.70
2018-01-17T18:51:51.643Z,-0.70
2018-01-17T18:54:19.923Z,-0.60
2018-01-17T18:56:48.246Z,-0.60
2018-01-17T18:59:17.347Z,-0.50
2018-01-17T19:01:45.674Z,-0.50
2018-01-17T19:04:14.115Z,-0.50
2018-01-17T19:06:42.420Z,-0.40
2018-01-17T19:09:11.535Z,-0.30
2018-01-17T19:11:41.338Z,-0.30
2018-01-17T19:14:09.677Z,-0.30
2018-01-17T19:16:37.971Z,-0.30
2018-01-17T19:19:06.277Z,-0.30
2018-01-17T19:21:34.563Z,-0.20
2018-01-17T19:24:03.016Z,-0.20
2018-01-17T19:26:32.176Z,-0.10
2018-01-17T19:29:00.560Z,-0.10
2018-01-17T19:31:28.930Z,-0.10
2018-01-17T19:33:57.332Z,-0.10
2018-01-17T19:36:25.706Z,-0.10
2018-01-17T19:38:54.123Z,-0.10
2018-01-17T19:41:22.524Z,-0.10
2018-01-17T19:43:50.880Z,-0.10
2018-01-17T19:46:19.245Z,-0.10
2018-01-17T19:48:47.668Z,-0.10
2018-01-17T19:51:16.087Z,-0.10
2018-01-17T19:53:44.514Z,-0.10
2018-01-17T19:56:12.941Z,-0.10
2018-01-17T19:58:41.371Z,0.00
2018-01-17T20:01:09.758Z,-0.10
2018-01-17T20:03:39.025Z,-0.10
2018-01-17T20:06:07.404Z,-0.10
2018-01-17T20:08:35.782Z,-0.10
2018-01-17T20:11:04.141Z,-0.10
2018-01-17T20:13:37.344Z,-0.10
2018-01-17T20:16:05.779Z,-0.10
2018-01-17T20:18:34.091Z,-0.10
2018-01-17T20:21:03.183Z,-0.10
2018-01-17T20:23:31.494Z,-0.10
2018-01-17T20:26:00.670Z,-0.10
2018-01-17T20:28:28.967Z,-0.10
2018-01-17T20:30:57.261Z,-0.10
2018-01-17T20:33:25.600Z,-0.20
2018-01-17T20:35:53.894Z,-0.10
2018-01-17T20:38:22.182Z,-0.10
2018-01-17T20:40:50.519Z,-0.10
2018-01-17T20:43:18.831Z,-0.10
2018-01-17T20:45:47.148Z,-0.10
2018-01-17T20:48:15.531Z,-0.10
2018-01-17T20:50:44.600Z,-0.10
2018-01-17T20:53:12.896Z,-0.10
2018-01-17T20:55:41.185Z,-0.10
2018-01-17T20:58:09.516Z,-0.10
2018-01-17T21:00:37.920Z,-0.10
2018-01-17T21:03:06.292Z,-0.10
2018-01-17T21:05:35.446Z,0.00
2018-01-17T21:08:03.819Z,-0.10
2018-01-17T21:10:32.192Z,0.00
2018-01-17T21:13:00.491Z,0.00
2018-01-17T21:15:28.850Z,0.00
2018-01-17T21:17:57.147Z,0.00
2018-01-17T21:20:26.312Z,0.00
2018-01-17T21:22:54.879Z,0.00
2018-01-17T21:25:23.183Z,0.00
2018-01-17T21:27:51.470Z,0.00
2018-01-17T21:30:19.754Z,0.00
2018-01-17T21:32:48.081Z,0.00
2018-01-17T21:35:16.374Z,0.00
2018-01-17T21:37:44.671Z,0.00
2018-01-17T21:40:12.970Z,-0.10
2018-01-17T21:42:46.815Z,-0.10
2018-01-17T21:45:20.702Z,-0.10
2018-01-17T21:47:49.086Z,-0.10
2018-01-17T21:50:17.466Z,-0.10
2018-01-17T21:52:45.835Z,-0.10
2018-01-17T21:55:14.228Z,0.00
2018-01-17T21:57:42.594Z,0.00
2018-01-17T22:00:11.662Z,0.00
2018-01-17T22:02:40.031Z,0.00
2018-01-17T22:05:08.320Z,0.00
2018-01-17T22:07:36.618Z,0.00
2018-01-17T22:10:04.908Z,0.00
2018-01-17T22:12:33.329Z,0.00
2018-01-17T22:15:01.620Z,0.00
2018-01-17T22:17:29.914Z,0.00
2018-01-17T22:19:58.210Z,0.00
2018-01-17T22:22:26.578Z,0.10
2018-01-17T22:24:54.956Z,0.10
2018-01-17T22:27:23.255Z,0.10
2018-01-17T22:29:51.575Z,0.00
2018-01-17T22:32:20.126Z,0.00
2018-01-17T22:34:49.225Z,0.00
2018-01-17T22:37:17.665Z,0.00
2018-01-17T22:39:46.906Z,0.00
2018-01-17T22:42:15.962Z,0.00
2018-01-17T22:44:44.252Z,0.00
2018-01-17T22:47:12.547Z,0.00
2018-01-17T22:49:40.881Z,0.00
2018-01-17T22:52:09.942Z,0.00
2018-01-17T22:54:38.229Z,0.00
2018-01-17T22:57:06.520Z,0.10
2018-01-17T22:59:34.816Z,0.10
2018-01-17T23:02:03.127Z,0.10
2018-01-17T23:04:31.426Z,0.00
2018-01-17T23:07:00.551Z,0.00
2018-01-17T23:09:28.973Z,0.00
2018-01-17T23:11:57.283Z,-0.10
2018-01-17T23:14:25.606Z,-0.10
2018-01-17T23:16:54.685Z,-0.10
2018-01-17T23:19:22.967Z,-0.10
2018-01-17T23:21:51.291Z,-0.10
2018-01-17T23:24:19.579Z,0.00
2018-01-17T23:26:47.912Z,0.00
2018-01-17T23:29:16.232Z,0.00
2018-01-17T23:31:44.532Z,0.00
2018-01-17T23:34:12.827Z,0.00
2018-01-17T23:36:41.132Z,0.00
2018-01-17T23:39:09.451Z,0.00
2018-01-17T23:41:37.753Z,0.10
2018-01-17T23:44:06.055Z,0.10
2018-01-17T23:46:34.390Z,0.10
2018-01-17T23:49:02.695Z,0.10
2018-01-17T23:51:31.197Z,0.10
2018-01-17T23:54:00.304Z,0.10
2018-01-17T23:56:28.582Z,0.00
2018-01-17T23:58:57.775Z,0.10
